sensor_id;sensor_type;location;lat;lon;timestamp;P1;durP1;ratioP1;P2;durP2;ratioP2
53594;SDS011;39479;45.720;11.310;2023-03-26T00:01:08;25.08;;;20.20;;
53594;SDS011;39479;45.720;11.310;2023-03-26T00:03:38;22.38;;;19.83;;
53594;SDS011;39479;45.720;11.310;2023-03-26T00:06:11;24.17;;;20.20;;
53594;SDS011;39479;45.720;11.310;2023-03-26T00:08:38;23.83;;;20.75;;
53594;SDS011;39479;45.720;11.310;2023-03-26T00:11:05;25.10;;;21.17;;
53594;SDS011;39479;45.720;11.310;2023-03-26T00:13:32;23.40;;;18.95;;
53594;SDS011;39479;45.720;11.310;2023-03-26T00:15:58;22.05;;;19.65;;
53594;SDS011;39479;45.720;11.310;2023-03-26T00:18:25;23.38;;;19.73;;
53594;SDS011;39479;45.720;11.310;2023-03-26T00:20:58;22.13;;;18.27;;
53594;SDS011;39479;45.720;11.310;2023-03-26T00:23:25;25.05;;;20.15;;
53594;SDS011;39479;45.720;11.310;2023-03-26T00:25:52;27.85;;;20.58;;
53594;SDS011;39479;45.720;11.310;2023-03-26T00:28:20;25.70;;;19.48;;
53594;SDS011;39479;45.720;11.310;2023-03-26T00:30:49;21.60;;;19.02;;
53594;SDS011;39479;45.720;11.310;2023-03-26T00:33:15;23.75;;;19.95;;
53594;SDS011;39479;45.720;11.310;2023-03-26T00:35:42;25.48;;;20.05;;
53594;SDS011;39479;45.720;11.310;2023-03-26T00:38:11;24.35;;;19.55;;
53594;SDS011;39479;45.720;11.310;2023-03-26T00:40:37;24.70;;;20.75;;
53594;SDS011;39479;45.720;11.310;2023-03-26T00:43:11;23.20;;;19.70;;
53594;SDS011;39479;45.720;11.310;2023-03-26T00:48:08;24.85;;;20.05;;
53594;SDS011;39479;45.720;11.310;2023-03-26T00:50:35;24.30;;;20.15;;
53594;SDS011;39479;45.720;11.310;2023-03-26T00:53:01;25.88;;;21.05;;
53594;SDS011;39479;45.720;11.310;2023-03-26T00:55:27;24.10;;;20.20;;
53594;SDS011;39479;45.720;11.310;2023-03-26T00:57:53;24.27;;;20.30;;
53594;SDS011;39479;45.720;11.310;2023-03-26T01:00:26;28.48;;;20.85;;
53594;SDS011;39479;45.720;11.310;2023-03-26T01:02:53;22.77;;;18.92;;
53594;SDS011;39479;45.720;11.310;2023-03-26T01:07:59;22.70;;;18.20;;
53594;SDS011;39479;45.720;11.310;2023-03-26T01:10:25;22.00;;;19.17;;
53594;SDS011;39479;45.720;11.310;2023-03-26T01:12:52;22.50;;;18.63;;
53594;SDS011;39479;45.720;11.310;2023-03-26T01:15:18;22.13;;;18.33;;
53594;SDS011;39479;45.720;11.310;2023-03-26T01:17:46;23.52;;;18.70;;
53594;SDS011;39479;45.720;11.310;2023-03-26T01:20:18;23.70;;;19.63;;
53594;SDS011;39479;45.720;11.310;2023-03-26T01:22:51;22.65;;;19.15;;
53594;SDS011;39479;45.720;11.310;2023-03-26T01:25:20;24.30;;;19.08;;
53594;SDS011;39479;45.720;11.310;2023-03-26T01:27:47;23.08;;;19.52;;
53594;SDS011;39479;45.720;11.310;2023-03-26T01:30:29;22.50;;;19.13;;
53594;SDS011;39479;45.720;11.310;2023-03-26T01:43:35;23.13;;;18.27;;
53594;SDS011;39479;45.720;11.310;2023-03-26T01:46:02;19.77;;;17.67;;
53594;SDS011;39479;45.720;11.310;2023-03-26T01:48:39;20.58;;;17.50;;
53594;SDS011;39479;45.720;11.310;2023-03-26T01:51:07;19.70;;;16.48;;
53594;SDS011;39479;45.720;11.310;2023-03-26T01:53:34;20.35;;;17.38;;
53594;SDS011;39479;45.720;11.310;2023-03-26T01:56:14;20.80;;;16.70;;
53594;SDS011;39479;45.720;11.310;2023-03-26T02:09:04;20.80;;;17.33;;
53594;SDS011;39479;45.720;11.310;2023-03-26T02:11:32;19.60;;;15.80;;
53594;SDS011;39479;45.720;11.310;2023-03-26T02:13:58;20.17;;;15.85;;
53594;SDS011;39479;45.720;11.310;2023-03-26T02:16:24;23.25;;;18.02;;
53594;SDS011;39479;45.720;11.310;2023-03-26T02:18:50;22.77;;;17.85;;
53594;SDS011;39479;45.720;11.310;2023-03-26T02:21:20;20.70;;;16.48;;
53594;SDS011;39479;45.720;11.310;2023-03-26T02:23:50;20.95;;;17.02;;
53594;SDS011;39479;45.720;11.310;2023-03-26T02:26:21;21.90;;;17.02;;
53594;SDS011;39479;45.720;11.310;2023-03-26T02:28:48;21.13;;;17.08;;
53594;SDS011;39479;45.720;11.310;2023-03-26T02:31:14;20.52;;;16.85;;
53594;SDS011;39479;45.720;11.310;2023-03-26T02:33:43;20.02;;;17.02;;
53594;SDS011;39479;45.720;11.310;2023-03-26T02:36:11;24.40;;;17.45;;
53594;SDS011;39479;45.720;11.310;2023-03-26T02:38:38;20.17;;;16.50;;
53594;SDS011;39479;45.720;11.310;2023-03-26T02:41:05;21.15;;;16.60;;
53594;SDS011;39479;45.720;11.310;2023-03-26T02:43:32;23.50;;;17.67;;
53594;SDS011;39479;45.720;11.310;2023-03-26T02:45:58;20.17;;;16.10;;
53594;SDS011;39479;45.720;11.310;2023-03-26T02:48:24;21.35;;;16.83;;
53594;SDS011;39479;45.720;11.310;2023-03-26T02:50:50;20.73;;;16.92;;
53594;SDS011;39479;45.720;11.310;2023-03-26T02:53:21;20.05;;;17.20;;
53594;SDS011;39479;45.720;11.310;2023-03-26T02:55:48;22.88;;;17.02;;
53594;SDS011;39479;45.720;11.310;2023-03-26T02:58:14;23.02;;;16.60;;
53594;SDS011;39479;45.720;11.310;2023-03-26T03:00:44;18.92;;;16.10;;
53594;SDS011;39479;45.720;11.310;2023-03-26T03:03:11;19.73;;;16.23;;
53594;SDS011;39479;45.720;11.310;2023-03-26T03:05:37;21.60;;;16.95;;
53594;SDS011;39479;45.720;11.310;2023-03-26T03:08:07;23.25;;;16.27;;
53594;SDS011;39479;45.720;11.310;2023-03-26T03:10:33;22.98;;;17.30;;
53594;SDS011;39479;45.720;11.310;2023-03-26T03:13:01;22.88;;;15.60;;
53594;SDS011;39479;45.720;11.310;2023-03-26T03:15:31;20.23;;;15.98;;
53594;SDS011;39479;45.720;11.310;2023-03-26T03:17:57;18.75;;;16.02;;
53594;SDS011;39479;45.720;11.310;2023-03-26T03:20:23;21.92;;;16.80;;
53594;SDS011;39479;45.720;11.310;2023-03-26T03:22:49;19.33;;;16.10;;
53594;SDS011;39479;45.720;11.310;2023-03-26T03:25:15;18.55;;;15.45;;
53594;SDS011;39479;45.720;11.310;2023-03-26T03:27:42;19.27;;;15.43;;
53594;SDS011;39479;45.720;11.310;2023-03-26T03:30:09;19.70;;;16.05;;
53594;SDS011;39479;45.720;11.310;2023-03-26T03:32:36;21.80;;;16.58;;
53594;SDS011;39479;45.720;11.310;2023-03-26T03:35:03;19.80;;;15.43;;
53594;SDS011;39479;45.720;11.310;2023-03-26T03:37:29;20.58;;;15.77;;
53594;SDS011;39479;45.720;11.310;2023-03-26T03:39:55;20.00;;;16.15;;
53594;SDS011;39479;45.720;11.310;2023-03-26T03:42:21;21.13;;;15.98;;
53594;SDS011;39479;45.720;11.310;2023-03-26T03:44:47;20.40;;;15.73;;
53594;SDS011;39479;45.720;11.310;2023-03-26T03:47:13;18.95;;;15.48;;
53594;SDS011;39479;45.720;11.310;2023-03-26T03:49:39;18.95;;;15.05;;
53594;SDS011;39479;45.720;11.310;2023-03-26T03:52:06;19.88;;;16.23;;
53594;SDS011;39479;45.720;11.310;2023-03-26T03:54:32;18.42;;;14.70;;
53594;SDS011;39479;45.720;11.310;2023-03-26T03:56:58;18.85;;;14.85;;
53594;SDS011;39479;45.720;11.310;2023-03-26T03:59:25;20.42;;;15.15;;
53594;SDS011;39479;45.720;11.310;2023-03-26T04:01:51;20.45;;;15.57;;
53594;SDS011;39479;45.720;11.310;2023-03-26T04:04:18;18.55;;;14.68;;
53594;SDS011;39479;45.720;11.310;2023-03-26T04:06:45;19.05;;;15.38;;
53594;SDS011;39479;45.720;11.310;2023-03-26T04:09:11;18.63;;;15.35;;
53594;SDS011;39479;45.720;11.310;2023-03-26T04:11:37;22.02;;;15.52;;
53594;SDS011;39479;45.720;11.310;2023-03-26T04:14:03;18.73;;;14.95;;
53594;SDS011;39479;45.720;11.310;2023-03-26T04:16:29;17.67;;;15.15;;
53594;SDS011;39479;45.720;11.310;2023-03-26T04:18:55;19.90;;;15.23;;
53594;SDS011;39479;45.720;11.310;2023-03-26T04:21:22;16.77;;;13.65;;
53594;SDS011;39479;45.720;11.310;2023-03-26T04:23:50;18.30;;;14.75;;
53594;SDS011;39479;45.720;11.310;2023-03-26T04:26:18;17.23;;;13.90;;
53594;SDS011;39479;45.720;11.310;2023-03-26T04:28:46;18.88;;;15.02;;
53594;SDS011;39479;45.720;11.310;2023-03-26T04:31:14;18.00;;;14.48;;
53594;SDS011;39479;45.720;11.310;2023-03-26T04:33:42;17.05;;;14.18;;
53594;SDS011;39479;45.720;11.310;2023-03-26T04:36:11;19.35;;;14.68;;
53594;SDS011;39479;45.720;11.310;2023-03-26T04:38:44;17.90;;;14.50;;
53594;SDS011;39479;45.720;11.310;2023-03-26T04:41:13;20.23;;;15.23;;
53594;SDS011;39479;45.720;11.310;2023-03-26T04:43:40;18.55;;;14.48;;
53594;SDS011;39479;45.720;11.310;2023-03-26T04:46:11;19.38;;;14.95;;
53594;SDS011;39479;45.720;11.310;2023-03-26T04:48:38;20.52;;;15.60;;
53594;SDS011;39479;45.720;11.310;2023-03-26T04:51:04;20.20;;;16.20;;
53594;SDS011;39479;45.720;11.310;2023-03-26T04:53:31;19.38;;;14.63;;
53594;SDS011;39479;45.720;11.310;2023-03-26T04:55:59;17.83;;;13.70;;
53594;SDS011;39479;45.720;11.310;2023-03-26T04:58:26;20.45;;;15.40;;
53594;SDS011;39479;45.720;11.310;2023-03-26T05:00:54;19.05;;;15.32;;
53594;SDS011;39479;45.720;11.310;2023-03-26T05:03:21;20.23;;;15.27;;
53594;SDS011;39479;45.720;11.310;2023-03-26T05:05:47;16.88;;;13.77;;
53594;SDS011;39479;45.720;11.310;2023-03-26T05:08:13;17.38;;;13.75;;
53594;SDS011;39479;45.720;11.310;2023-03-26T05:10:39;19.17;;;14.52;;
53594;SDS011;39479;45.720;11.310;2023-03-26T05:13:05;17.90;;;13.68;;
53594;SDS011;39479;45.720;11.310;2023-03-26T05:15:31;15.02;;;12.68;;
53594;SDS011;39479;45.720;11.310;2023-03-26T05:17:57;17.95;;;14.68;;
53594;SDS011;39479;45.720;11.310;2023-03-26T05:20:24;19.50;;;14.48;;
53594;SDS011;39479;45.720;11.310;2023-03-26T05:22:51;17.55;;;14.38;;
53594;SDS011;39479;45.720;11.310;2023-03-26T05:25:17;16.90;;;14.00;;
53594;SDS011;39479;45.720;11.310;2023-03-26T05:27:44;19.08;;;14.93;;
53594;SDS011;39479;45.720;11.310;2023-03-26T05:30:14;18.40;;;14.48;;
53594;SDS011;39479;45.720;11.310;2023-03-26T05:32:40;19.00;;;15.13;;
53594;SDS011;39479;45.720;11.310;2023-03-26T05:35:06;18.60;;;15.15;;
53594;SDS011;39479;45.720;11.310;2023-03-26T05:37:33;16.92;;;14.77;;
53594;SDS011;39479;45.720;11.310;2023-03-26T05:39:59;17.75;;;14.88;;
53594;SDS011;39479;45.720;11.310;2023-03-26T05:42:26;18.08;;;14.25;;
53594;SDS011;39479;45.720;11.310;2023-03-26T05:44:52;17.05;;;13.68;;
53594;SDS011;39479;45.720;11.310;2023-03-26T05:47:18;14.73;;;12.90;;
53594;SDS011;39479;45.720;11.310;2023-03-26T05:49:44;14.05;;;11.85;;
53594;SDS011;39479;45.720;11.310;2023-03-26T05:52:11;14.65;;;12.15;;
53594;SDS011;39479;45.720;11.310;2023-03-26T05:54:40;15.57;;;12.63;;
53594;SDS011;39479;45.720;11.310;2023-03-26T05:57:06;14.77;;;12.68;;
53594;SDS011;39479;45.720;11.310;2023-03-26T05:59:32;15.55;;;12.43;;
53594;SDS011;39479;45.720;11.310;2023-03-26T06:01:59;16.25;;;11.95;;
53594;SDS011;39479;45.720;11.310;2023-03-26T06:04:28;15.60;;;12.65;;
53594;SDS011;39479;45.720;11.310;2023-03-26T06:06:56;14.18;;;12.15;;
53594;SDS011;39479;45.720;11.310;2023-03-26T06:09:22;14.73;;;12.70;;
53594;SDS011;39479;45.720;11.310;2023-03-26T06:11:48;14.35;;;12.40;;
53594;SDS011;39479;45.720;11.310;2023-03-26T06:14:14;13.20;;;11.80;;
53594;SDS011;39479;45.720;11.310;2023-03-26T06:16:40;14.43;;;12.52;;
53594;SDS011;39479;45.720;11.310;2023-03-26T06:19:06;13.82;;;12.32;;
53594;SDS011;39479;45.720;11.310;2023-03-26T06:21:33;15.38;;;12.35;;
53594;SDS011;39479;45.720;11.310;2023-03-26T06:23:58;13.23;;;11.82;;
53594;SDS011;39479;45.720;11.310;2023-03-26T06:26:25;12.90;;;11.60;;
53594;SDS011;39479;45.720;11.310;2023-03-26T06:28:51;14.02;;;11.63;;
53594;SDS011;39479;45.720;11.310;2023-03-26T06:31:17;14.25;;;12.05;;
53594;SDS011;39479;45.720;11.310;2023-03-26T06:33:43;14.38;;;12.73;;
53594;SDS011;39479;45.720;11.310;2023-03-26T06:36:10;14.25;;;12.27;;
53594;SDS011;39479;45.720;11.310;2023-03-26T06:38:36;13.80;;;12.05;;
53594;SDS011;39479;45.720;11.310;2023-03-26T06:41:06;13.60;;;12.20;;
53594;SDS011;39479;45.720;11.310;2023-03-26T06:43:32;13.73;;;11.98;;
53594;SDS011;39479;45.720;11.310;2023-03-26T06:45:59;13.77;;;11.98;;
53594;SDS011;39479;45.720;11.310;2023-03-26T06:48:26;13.35;;;11.60;;
53594;SDS011;39479;45.720;11.310;2023-03-26T06:50:52;14.25;;;12.32;;
53594;SDS011;39479;45.720;11.310;2023-03-26T06:53:18;13.85;;;11.77;;
53594;SDS011;39479;45.720;11.310;2023-03-26T06:55:44;13.95;;;12.48;;
53594;SDS011;39479;45.720;11.310;2023-03-26T06:58:10;14.57;;;11.90;;
53594;SDS011;39479;45.720;11.310;2023-03-26T07:00:37;14.65;;;11.95;;
53594;SDS011;39479;45.720;11.310;2023-03-26T07:03:03;14.02;;;12.60;;
53594;SDS011;39479;45.720;11.310;2023-03-26T07:05:29;13.55;;;11.45;;
53594;SDS011;39479;45.720;11.310;2023-03-26T07:07:55;12.25;;;11.05;;
53594;SDS011;39479;45.720;11.310;2023-03-26T07:10:21;14.25;;;12.68;;
53594;SDS011;39479;45.720;11.310;2023-03-26T07:12:48;13.00;;;11.70;;
53594;SDS011;39479;45.720;11.310;2023-03-26T07:15:14;12.45;;;11.15;;
53594;SDS011;39479;45.720;11.310;2023-03-26T07:17:40;13.70;;;11.35;;
53594;SDS011;39479;45.720;11.310;2023-03-26T07:20:07;12.52;;;11.25;;
53594;SDS011;39479;45.720;11.310;2023-03-26T07:22:33;12.63;;;10.80;;
53594;SDS011;39479;45.720;11.310;2023-03-26T07:25:00;12.88;;;11.40;;
53594;SDS011;39479;45.720;11.310;2023-03-26T07:32:27;12.00;;;10.90;;
53594;SDS011;39479;45.720;11.310;2023-03-26T07:35:01;13.10;;;11.73;;
53594;SDS011;39479;45.720;11.310;2023-03-26T07:42:59;13.65;;;12.25;;
53594;SDS011;39479;45.720;11.310;2023-03-26T07:45:29;16.88;;;14.35;;
53594;SDS011;39479;45.720;11.310;2023-03-26T07:47:58;15.60;;;13.10;;
53594;SDS011;39479;45.720;11.310;2023-03-26T07:50:24;17.27;;;13.05;;
53594;SDS011;39479;45.720;11.310;2023-03-26T07:52:51;17.98;;;12.60;;
53594;SDS011;39479;45.720;11.310;2023-03-26T07:55:17;13.73;;;11.98;;
53594;SDS011;39479;45.720;11.310;2023-03-26T08:00:19;7.93;;;6.70;;
53594;SDS011;39479;45.720;11.310;2023-03-26T08:03:02;7.40;;;6.60;;
53594;SDS011;39479;45.720;11.310;2023-03-26T08:05:34;7.15;;;6.45;;
53594;SDS011;39479;45.720;11.310;2023-03-26T08:13:20;6.90;;;6.20;;
53594;SDS011;39479;45.720;11.310;2023-03-26T08:21:04;9.32;;;7.25;;
53594;SDS011;39479;45.720;11.310;2023-03-26T08:23:36;14.57;;;10.50;;
53594;SDS011;39479;45.720;11.310;2023-03-26T08:26:09;9.02;;;7.55;;
53594;SDS011;39479;45.720;11.310;2023-03-26T08:31:16;10.57;;;6.80;;
53594;SDS011;39479;45.720;11.310;2023-03-26T08:33:43;7.43;;;5.90;;
53594;SDS011;39479;45.720;11.310;2023-03-26T08:36:09;8.18;;;5.75;;
53594;SDS011;39479;45.720;11.310;2023-03-26T08:38:35;7.57;;;5.70;;
53594;SDS011;39479;45.720;11.310;2023-03-26T08:49:00;7.65;;;5.50;;
53594;SDS011;39479;45.720;11.310;2023-03-26T08:51:32;5.20;;;4.70;;
53594;SDS011;39479;45.720;11.310;2023-03-26T09:01:59;6.50;;;4.90;;
53594;SDS011;39479;45.720;11.310;2023-03-26T09:04:46;7.47;;;5.50;;
53594;SDS011;39479;45.720;11.310;2023-03-26T09:20:39;8.50;;;5.80;;
53594;SDS011;39479;45.720;11.310;2023-03-26T09:22:50;6.32;;;5.60;;
53594;SDS011;39479;45.720;11.310;2023-03-26T09:40:54;19.40;;;12.10;;
53594;SDS011;39479;45.720;11.310;2023-03-26T09:48:30;8.60;;;6.45;;
53594;SDS011;39479;45.720;11.310;2023-03-26T09:53:50;13.07;;;9.52;;
53594;SDS011;39479;45.720;11.310;2023-03-26T09:59:25;9.45;;;7.95;;
53594;SDS011;39479;45.720;11.310;2023-03-26T10:09:19;9.68;;;7.22;;
53594;SDS011;39479;45.720;11.310;2023-03-26T10:11:56;7.60;;;6.38;;
53594;SDS011;39479;45.720;11.310;2023-03-26T10:14:31;6.60;;;5.18;;
53594;SDS011;39479;45.720;11.310;2023-03-26T10:17:10;8.38;;;7.43;;
53594;SDS011;39479;45.720;11.310;2023-03-26T10:32:57;8.80;;;6.97;;
53594;SDS011;39479;45.720;11.310;2023-03-26T10:38:17;7.10;;;6.30;;
53594;SDS011;39479;45.720;11.310;2023-03-26T10:41:29;8.10;;;6.35;;
53594;SDS011;39479;45.720;11.310;2023-03-26T10:43:53;8.32;;;6.47;;
53594;SDS011;39479;45.720;11.310;2023-03-26T10:51:54;6.85;;;5.72;;
53594;SDS011;39479;45.720;11.310;2023-03-26T10:57:10;7.32;;;5.25;;
53594;SDS011;39479;45.720;11.310;2023-03-26T10:59:37;8.45;;;5.90;;
53594;SDS011;39479;45.720;11.310;2023-03-26T11:05:42;8.02;;;4.95;;
53594;SDS011;39479;45.720;11.310;2023-03-26T11:07:53;7.63;;;5.03;;
53594;SDS011;39479;45.720;11.310;2023-03-26T11:10:27;6.32;;;4.97;;
53594;SDS011;39479;45.720;11.310;2023-03-26T11:31:12;9.25;;;6.18;;
53594;SDS011;39479;45.720;11.310;2023-03-26T11:33:45;7.40;;;5.63;;
53594;SDS011;39479;45.720;11.310;2023-03-26T11:36:14;7.30;;;6.55;;
53594;SDS011;39479;45.720;11.310;2023-03-26T11:38:43;10.20;;;5.90;;
53594;SDS011;39479;45.720;11.310;2023-03-26T11:41:10;9.93;;;6.55;;
53594;SDS011;39479;45.720;11.310;2023-03-26T11:43:36;13.73;;;8.65;;
53594;SDS011;39479;45.720;11.310;2023-03-26T11:46:03;9.80;;;6.10;;
53594;SDS011;39479;45.720;11.310;2023-03-26T11:48:34;10.30;;;7.03;;
53594;SDS011;39479;45.720;11.310;2023-03-26T11:51:04;9.68;;;6.97;;
53594;SDS011;39479;45.720;11.310;2023-03-26T11:53:32;7.75;;;6.95;;
53594;SDS011;39479;45.720;11.310;2023-03-26T11:56:12;7.35;;;6.65;;
53594;SDS011;39479;45.720;11.310;2023-03-26T12:01:39;8.82;;;6.63;;
53594;SDS011;39479;45.720;11.310;2023-03-26T12:04:09;8.02;;;6.63;;
53594;SDS011;39479;45.720;11.310;2023-03-26T12:06:37;7.95;;;6.60;;
53594;SDS011;39479;45.720;11.310;2023-03-26T12:09:10;8.35;;;6.80;;
53594;SDS011;39479;45.720;11.310;2023-03-26T12:11:40;8.48;;;6.53;;
53594;SDS011;39479;45.720;11.310;2023-03-26T12:14:12;8.43;;;6.90;;
53594;SDS011;39479;45.720;11.310;2023-03-26T12:16:54;8.10;;;6.78;;
53594;SDS011;39479;45.720;11.310;2023-03-26T12:19:21;8.05;;;7.22;;
53594;SDS011;39479;45.720;11.310;2023-03-26T12:21:49;7.90;;;6.85;;
53594;SDS011;39479;45.720;11.310;2023-03-26T12:24:26;9.38;;;7.30;;
53594;SDS011;39479;45.720;11.310;2023-03-26T12:27:26;9.57;;;6.32;;
53594;SDS011;39479;45.720;11.310;2023-03-26T12:29:51;10.30;;;8.27;;
53594;SDS011;39479;45.720;11.310;2023-03-26T12:32:24;14.60;;;9.07;;
53594;SDS011;39479;45.720;11.310;2023-03-26T12:34:50;11.02;;;8.00;;
53594;SDS011;39479;45.720;11.310;2023-03-26T12:40:05;10.50;;;8.15;;
53594;SDS011;39479;45.720;11.310;2023-03-26T12:42:35;10.68;;;7.47;;
53594;SDS011;39479;45.720;11.310;2023-03-26T12:45:05;9.57;;;7.57;;
53594;SDS011;39479;45.720;11.310;2023-03-26T12:47:31;9.52;;;7.32;;
53594;SDS011;39479;45.720;11.310;2023-03-26T12:49:58;9.63;;;6.75;;
53594;SDS011;39479;45.720;11.310;2023-03-26T12:54:53;8.18;;;6.10;;
53594;SDS011;39479;45.720;11.310;2023-03-26T12:57:21;12.13;;;7.82;;
53594;SDS011;39479;45.720;11.310;2023-03-26T13:04:59;10.32;;;8.02;;
53594;SDS011;39479;45.720;11.310;2023-03-26T13:07:37;9.93;;;8.30;;
53594;SDS011;39479;45.720;11.310;2023-03-26T13:12:38;11.75;;;9.88;;
53594;SDS011;39479;45.720;11.310;2023-03-26T13:15:19;10.95;;;9.75;;
53594;SDS011;39479;45.720;11.310;2023-03-26T13:37:55;13.32;;;10.80;;
53594;SDS011;39479;45.720;11.310;2023-03-26T13:47:56;9.48;;;8.48;;
53594;SDS011;39479;45.720;11.310;2023-03-26T13:50:31;11.13;;;8.57;;
53594;SDS011;39479;45.720;11.310;2023-03-26T13:53:07;14.13;;;9.02;;
53594;SDS011;39479;45.720;11.310;2023-03-26T13:55:46;13.80;;;10.43;;
53594;SDS011;39479;45.720;11.310;2023-03-26T14:00:47;11.98;;;8.60;;
53594;SDS011;39479;45.720;11.310;2023-03-26T14:08:43;10.88;;;8.95;;
53594;SDS011;39479;45.720;11.310;2023-03-26T14:11:13;10.88;;;8.52;;
53594;SDS011;39479;45.720;11.310;2023-03-26T14:13:53;11.77;;;9.00;;
53594;SDS011;39479;45.720;11.310;2023-03-26T14:16:42;16.25;;;13.32;;
53594;SDS011;39479;45.720;11.310;2023-03-26T14:19:29;15.40;;;10.55;;
53594;SDS011;39479;45.720;11.310;2023-03-26T14:24:53;13.45;;;10.10;;
53594;SDS011;39479;45.720;11.310;2023-03-26T14:41:01;16.42;;;11.23;;
53594;SDS011;39479;45.720;11.310;2023-03-26T14:53:49;15.95;;;12.68;;
53594;SDS011;39479;45.720;11.310;2023-03-26T14:56:21;17.83;;;13.48;;
53594;SDS011;39479;45.720;11.310;2023-03-26T15:12:26;24.50;;;18.80;;
53594;SDS011;39479;45.720;11.310;2023-03-26T15:15:15;19.23;;;15.88;;
53594;SDS011;39479;45.720;11.310;2023-03-26T15:23:24;68.63;;;52.80;;
53594;SDS011;39479;45.720;11.310;2023-03-26T15:26:37;26.70;;;20.95;;
53594;SDS011;39479;45.720;11.310;2023-03-26T15:41:43;21.08;;;18.13;;
53594;SDS011;39479;45.720;11.310;2023-03-26T15:44:29;22.92;;;19.65;;
53594;SDS011;39479;45.720;11.310;2023-03-26T15:47:15;21.65;;;18.20;;
53594;SDS011;39479;45.720;11.310;2023-03-26T15:49:52;21.45;;;17.77;;
53594;SDS011;39479;45.720;11.310;2023-03-26T16:04:52;20.10;;;16.88;;
53594;SDS011;39479;45.720;11.310;2023-03-26T16:07:31;19.10;;;16.77;;
53594;SDS011;39479;45.720;11.310;2023-03-26T16:12:53;17.15;;;14.30;;
53594;SDS011;39479;45.720;11.310;2023-03-26T16:15:29;15.20;;;11.95;;
53594;SDS011;39479;45.720;11.310;2023-03-26T16:18:17;11.65;;;9.82;;
53594;SDS011;39479;45.720;11.310;2023-03-26T16:20:50;8.48;;;7.50;;
53594;SDS011;39479;45.720;11.310;2023-03-26T16:25:55;8.20;;;6.07;;
53594;SDS011;39479;45.720;11.310;2023-03-26T16:28:27;5.47;;;4.30;;
53594;SDS011;39479;45.720;11.310;2023-03-26T16:33:43;6.28;;;4.97;;
53594;SDS011;39479;45.720;11.310;2023-03-26T16:39:10;3.92;;;3.42;;
53594;SDS011;39479;45.720;11.310;2023-03-26T16:44:23;6.07;;;3.20;;
53594;SDS011;39479;45.720;11.310;2023-03-26T16:46:55;2.80;;;2.55;;
53594;SDS011;39479;45.720;11.310;2023-03-26T16:51:55;2.78;;;2.28;;
53594;SDS011;39479;45.720;11.310;2023-03-26T16:56:59;4.93;;;3.40;;
53594;SDS011;39479;45.720;11.310;2023-03-26T17:01:58;4.20;;;3.80;;
53594;SDS011;39479;45.720;11.310;2023-03-26T17:04:29;6.18;;;4.53;;
53594;SDS011;39479;45.720;11.310;2023-03-26T17:19:28;4.45;;;2.30;;
53594;SDS011;39479;45.720;11.310;2023-03-26T17:22:07;2.97;;;2.17;;
53594;SDS011;39479;45.720;11.310;2023-03-26T17:27:23;2.67;;;2.22;;
53594;SDS011;39479;45.720;11.310;2023-03-26T17:32:50;2.55;;;2.35;;
53594;SDS011;39479;45.720;11.310;2023-03-26T17:35:28;3.67;;;2.35;;
53594;SDS011;39479;45.720;11.310;2023-03-26T17:37:59;3.25;;;2.30;;
53594;SDS011;39479;45.720;11.310;2023-03-26T17:40:27;2.10;;;1.90;;
53594;SDS011;39479;45.720;11.310;2023-03-26T17:43:03;5.03;;;4.53;;
53594;SDS011;39479;45.720;11.310;2023-03-26T17:48:13;12.02;;;7.22;;
53594;SDS011;39479;45.720;11.310;2023-03-26T17:50:49;4.32;;;3.92;;
53594;SDS011;39479;45.720;11.310;2023-03-26T17:55:49;8.35;;;5.90;;
53594;SDS011;39479;45.720;11.310;2023-03-26T17:58:22;6.72;;;5.18;;
53594;SDS011;39479;45.720;11.310;2023-03-26T18:06:12;4.03;;;3.58;;
53594;SDS011;39479;45.720;11.310;2023-03-26T18:16:48;3.15;;;2.70;;
53594;SDS011;39479;45.720;11.310;2023-03-26T18:19:16;3.25;;;2.85;;
53594;SDS011;39479;45.720;11.310;2023-03-26T18:21:44;2.70;;;2.50;;
53594;SDS011;39479;45.720;11.310;2023-03-26T18:24:15;2.22;;;2.08;;
53594;SDS011;39479;45.720;11.310;2023-03-26T18:26:43;2.40;;;2.20;;
53594;SDS011;39479;45.720;11.310;2023-03-26T18:31:56;5.22;;;3.40;;
53594;SDS011;39479;45.720;11.310;2023-03-26T18:34:24;19.05;;;15.48;;
53594;SDS011;39479;45.720;11.310;2023-03-26T18:39:34;2.90;;;2.60;;
53594;SDS011;39479;45.720;11.310;2023-03-26T18:42:00;4.15;;;3.70;;
53594;SDS011;39479;45.720;11.310;2023-03-26T18:44:27;5.05;;;4.07;;
53594;SDS011;39479;45.720;11.310;2023-03-26T18:46:53;4.15;;;3.47;;
53594;SDS011;39479;45.720;11.310;2023-03-26T18:49:19;3.03;;;2.70;;
53594;SDS011;39479;45.720;11.310;2023-03-26T18:51:45;3.20;;;2.72;;
53594;SDS011;39479;45.720;11.310;2023-03-26T18:54:18;13.43;;;9.85;;
53594;SDS011;39479;45.720;11.310;2023-03-26T18:56:45;5.43;;;4.80;;
53594;SDS011;39479;45.720;11.310;2023-03-26T18:59:25;5.00;;;4.40;;
53594;SDS011;39479;45.720;11.310;2023-03-26T19:01:52;26.33;;;16.42;;
53594;SDS011;39479;45.720;11.310;2023-03-26T19:04:21;4.60;;;3.80;;
53594;SDS011;39479;45.720;11.310;2023-03-26T19:06:48;3.85;;;2.80;;
53594;SDS011;39479;45.720;11.310;2023-03-26T19:09:18;3.78;;;3.00;;
53594;SDS011;39479;45.720;11.310;2023-03-26T19:11:45;3.63;;;3.22;;
53594;SDS011;39479;45.720;11.310;2023-03-26T19:14:14;4.45;;;3.70;;
53594;SDS011;39479;45.720;11.310;2023-03-26T19:16:41;3.20;;;2.90;;
53594;SDS011;39479;45.720;11.310;2023-03-26T19:19:10;5.28;;;3.50;;
53594;SDS011;39479;45.720;11.310;2023-03-26T19:21:40;6.15;;;4.78;;
53594;SDS011;39479;45.720;11.310;2023-03-26T19:24:06;6.72;;;4.47;;
53594;SDS011;39479;45.720;11.310;2023-03-26T19:26:33;5.10;;;4.50;;
53594;SDS011;39479;45.720;11.310;2023-03-26T19:29:00;5.10;;;4.60;;
53594;SDS011;39479;45.720;11.310;2023-03-26T19:33:57;4.18;;;3.78;;
53594;SDS011;39479;45.720;11.310;2023-03-26T19:36:28;4.97;;;4.03;;
53594;SDS011;39479;45.720;11.310;2023-03-26T19:41:29;5.60;;;4.80;;
53594;SDS011;39479;45.720;11.310;2023-03-26T19:43:59;5.95;;;4.60;;
53594;SDS011;39479;45.720;11.310;2023-03-26T19:46:26;5.53;;;4.72;;
53594;SDS011;39479;45.720;11.310;2023-03-26T19:48:53;5.97;;;5.25;;
53594;SDS011;39479;45.720;11.310;2023-03-26T19:51:24;6.03;;;5.25;;
53594;SDS011;39479;45.720;11.310;2023-03-26T19:53:56;5.38;;;4.82;;
53594;SDS011;39479;45.720;11.310;2023-03-26T19:56:24;4.70;;;4.20;;
53594;SDS011;39479;45.720;11.310;2023-03-26T19:58:50;5.07;;;4.30;;
53594;SDS011;39479;45.720;11.310;2023-03-26T20:01:17;4.70;;;4.25;;
53594;SDS011;39479;45.720;11.310;2023-03-26T20:03:46;5.20;;;4.70;;
53594;SDS011;39479;45.720;11.310;2023-03-26T20:06:13;6.75;;;4.80;;
53594;SDS011;39479;45.720;11.310;2023-03-26T20:08:40;4.30;;;3.90;;
53594;SDS011;39479;45.720;11.310;2023-03-26T20:11:39;4.20;;;3.80;;
53594;SDS011;39479;45.720;11.310;2023-03-26T20:14:00;4.68;;;4.20;;
53594;SDS011;39479;45.720;11.310;2023-03-26T20:16:27;5.80;;;5.20;;
53594;SDS011;39479;45.720;11.310;2023-03-26T20:18:55;6.47;;;5.20;;
53594;SDS011;39479;45.720;11.310;2023-03-26T20:21:26;7.47;;;5.50;;
53594;SDS011;39479;45.720;11.310;2023-03-26T20:23:52;5.65;;;4.40;;